Otagawa — JD3046 — position and weather

sailwx.info

Track history (hours):
 
Tides and Currents Weather Stations Pressure Air Temp Water Temp Dewpoint Dewpoint Depression Visibility Wind Speed Wind Dir Waves Ship Positions

Otagawa

Last reported at 2014-Dec-21 20:30 UTC. Time now 2014-Dec-21 20:53 UTC.
Position N 35°25' E 139°42'.

Length 70 m; draft 4.6 m.

Type: Ship. MMSI: 431001328.

Date/timePositionNaut miles runAvg speedWind from/ knotsBaromVisibWave heightAir tempDewpointWater temp
2014-Dec-21 20:30N 35°25' E 139°42'0 0.0
2014-Dec-21 19:33N 35°26' E 139°42'0 0.0
2014-Dec-21 18:33N 35°26' E 139°42'0 0.0
2014-Dec-21 17:30N 35°26' E 139°42'0 0.0
2014-Dec-21 16:33N 35°26' E 139°42'0 0.0
2014-Dec-21 15:33N 35°26' E 139°42'0 0.0
2014-Dec-21 14:33N 35°26' E 139°42'0 0.0
2014-Dec-21 13:33N 35°25' E 139°42'0 0.0
2014-Dec-21 12:33N 35°25' E 139°42'0 0.0
2014-Dec-21 11:33N 35°25' E 139°42'0 0.0
2014-Dec-21 10:33N 35°26' E 139°42'0 0.0
2014-Dec-21 09:33N 35°25' E 139°42'0 0.0
2014-Dec-21 08:33N 35°25' E 139°42'0 0.0
2014-Dec-21 07:33N 35°25' E 139°42'0 0.0
2014-Dec-21 06:33N 35°25' E 139°42'0 0.1
2014-Dec-21 05:33N 35°25' E 139°42'0 0.0
2014-Dec-21 04:30N 35°26' E 139°42'0 0.0
2014-Dec-21 03:30N 35°25' E 139°42'0 0.0
2014-Dec-21 02:33N 35°25' E 139°42'0 0.0
2014-Dec-21 01:30N 35°25' E 139°42'1 0.9
2014-Dec-21 00:33N 35°26' E 139°41'0 0.1
2014-Dec-20 23:33N 35°26' E 139°41'3 3.1
2014-Dec-20 22:34N 35°24' E 139°43'7 7.2
2014-Dec-20 21:33N 35°17' E 139°46'10 9.9
2014-Dec-20 20:32N 35°07' E 139°45'  
2014-Dec-13 22:27N 35°02' E 139°45'25 5.8
2014-Dec-13 18:13N 35°27' E 139°42'0 0.0
2014-Dec-13 17:31N 35°27' E 139°42'0 0.0
2014-Dec-13 16:31N 35°27' E 139°42'0 0.0
2014-Dec-13 15:31N 35°27' E 139°42'0 0.0
2014-Dec-13 14:28N 35°27' E 139°42'0 0.1
2014-Dec-13 13:31N 35°27' E 139°42'0 0.0
2014-Dec-13 12:31N 35°27' E 139°42'0 0.0
2014-Dec-13 11:31N 35°27' E 139°42'0 0.0
2014-Dec-13 10:31N 35°27' E 139°42'0 0.0
2014-Dec-13 09:31N 35°27' E 139°42'0 0.0
2014-Dec-13 08:31N 35°27' E 139°42'0 0.0
2014-Dec-13 07:31N 35°27' E 139°42'0 0.0
2014-Dec-13 06:31N 35°27' E 139°42'2 1.6
2014-Dec-13 05:34N 35°26' E 139°41'0 0.4
2014-Dec-13 04:34N 35°26' E 139°41'0 0.0
2014-Dec-13 03:33N 35°26' E 139°41'1 0.8
2014-Dec-13 02:34N 35°27' E 139°42'9 9.1
2014-Dec-13 01:33N 35°33' E 139°51'2 0.8
2014-Dec-12 22:34N 35°34' E 139°49'2 1.5
2014-Dec-12 21:32N 35°34' E 139°50'0 0.0
2014-Dec-12 20:20N 35°34' E 139°50'0 0.0
2014-Dec-12 18:20N 35°34' E 139°50'0 0.0
2014-Dec-12 17:12N 35°34' E 139°50'4 5.8
2014-Dec-12 16:30N 35°30' E 139°52'910.0
2014-Dec-12 15:33N 35°22' E 139°45'9 8.9
2014-Dec-12 14:33N 35°13' E 139°47'  
Track history (hours):
 
Tides and Currents Weather Stations Pressure Air Temp Water Temp Dewpoint Dewpoint Depression Visibility Wind Speed Wind Dir Waves Ship Positions

Otagawa

Last reported at 2014-Dec-21 20:30 UTC. Time now 2014-Dec-21 20:53 UTC.
Position N 35°25' E 139°42'.

Length 70 m; draft 4.6 m.

Type: Ship. MMSI: 431001328.

Date/timePositionNaut miles runAvg speedWind from/ knotsBaromVisibWave heightAir tempDewpointWater temp
2014-Dec-21 20:30N 35°25' E 139°42'0 0.0
2014-Dec-21 19:33N 35°26' E 139°42'0 0.0
2014-Dec-21 18:33N 35°26' E 139°42'0 0.0
2014-Dec-21 17:30N 35°26' E 139°42'0 0.0
2014-Dec-21 16:33N 35°26' E 139°42'0 0.0
2014-Dec-21 15:33N 35°26' E 139°42'0 0.0
2014-Dec-21 14:33N 35°26' E 139°42'0 0.0
2014-Dec-21 13:33N 35°25' E 139°42'0 0.0
2014-Dec-21 12:33N 35°25' E 139°42'0 0.0
2014-Dec-21 11:33N 35°25' E 139°42'0 0.0
2014-Dec-21 10:33N 35°26' E 139°42'0 0.0
2014-Dec-21 09:33N 35°25' E 139°42'0 0.0
2014-Dec-21 08:33N 35°25' E 139°42'0 0.0
2014-Dec-21 07:33N 35°25' E 139°42'0 0.0
2014-Dec-21 06:33N 35°25' E 139°42'0 0.1
2014-Dec-21 05:33N 35°25' E 139°42'0 0.0
2014-Dec-21 04:30N 35°26' E 139°42'0 0.0
2014-Dec-21 03:30N 35°25' E 139°42'0 0.0
2014-Dec-21 02:33N 35°25' E 139°42'0 0.0
2014-Dec-21 01:30N 35°25' E 139°42'1 0.9
2014-Dec-21 00:33N 35°26' E 139°41'0 0.1
2014-Dec-20 23:33N 35°26' E 139°41'3 3.1
2014-Dec-20 22:34N 35°24' E 139°43'7 7.2
2014-Dec-20 21:33N 35°17' E 139°46'10 9.9
2014-Dec-20 20:32N 35°07' E 139°45'  
2014-Dec-13 22:27N 35°02' E 139°45'25 5.8
2014-Dec-13 18:13N 35°27' E 139°42'0 0.0
2014-Dec-13 17:31N 35°27' E 139°42'0 0.0
2014-Dec-13 16:31N 35°27' E 139°42'0 0.0
2014-Dec-13 15:31N 35°27' E 139°42'0 0.0
2014-Dec-13 14:28N 35°27' E 139°42'0 0.1
2014-Dec-13 13:31N 35°27' E 139°42'0 0.0
2014-Dec-13 12:31N 35°27' E 139°42'0 0.0
2014-Dec-13 11:31N 35°27' E 139°42'0 0.0
2014-Dec-13 10:31N 35°27' E 139°42'0 0.0
2014-Dec-13 09:31N 35°27' E 139°42'0 0.0
2014-Dec-13 08:31N 35°27' E 139°42'0 0.0
2014-Dec-13 07:31N 35°27' E 139°42'0 0.0
2014-Dec-13 06:31N 35°27' E 139°42'2 1.6
2014-Dec-13 05:34N 35°26' E 139°41'0 0.4
2014-Dec-13 04:34N 35°26' E 139°41'0 0.0
2014-Dec-13 03:33N 35°26' E 139°41'1 0.8
2014-Dec-13 02:34N 35°27' E 139°42'9 9.1
2014-Dec-13 01:33N 35°33' E 139°51'2 0.8
2014-Dec-12 22:34N 35°34' E 139°49'2 1.5
2014-Dec-12 21:32N 35°34' E 139°50'0 0.0
2014-Dec-12 20:20N 35°34' E 139°50'0 0.0
2014-Dec-12 18:20N 35°34' E 139°50'0 0.0
2014-Dec-12 17:12N 35°34' E 139°50'4 5.8
2014-Dec-12 16:30N 35°30' E 139°52'910.0
2014-Dec-12 15:33N 35°22' E 139°45'9 8.9
2014-Dec-12 14:33N 35°13' E 139°47'  

Dump ship's entire track history